sensor_id;sensor_type;location;lat;lon;timestamp;temperature;humidity
2995;DHT22;35277;49.890;8.222;2022-11-11T00:00:34;22.10;75.90
2995;DHT22;35277;49.890;8.222;2022-11-11T00:03:21;22.10;75.90
2995;DHT22;35277;49.890;8.222;2022-11-11T00:06:11;22.10;75.90
2995;DHT22;35277;49.890;8.222;2022-11-11T00:08:58;22.10;75.90
2995;DHT22;35277;49.890;8.222;2022-11-11T00:11:45;22.10;75.90
2995;DHT22;35277;49.890;8.222;2022-11-11T00:14:32;22.10;75.90
2995;DHT22;35277;49.890;8.222;2022-11-11T00:17:19;22.10;75.90
2995;DHT22;35277;49.890;8.222;2022-11-11T00:20:23;22.10;75.90
2995;DHT22;35277;49.890;8.222;2022-11-11T00:23:29;22.10;75.90
2995;DHT22;35277;49.890;8.222;2022-11-11T00:26:33;22.10;76.00
2995;DHT22;35277;49.890;8.222;2022-11-11T00:29:24;22.10;76.00
2995;DHT22;35277;49.890;8.222;2022-11-11T00:32:12;22.10;75.90
2995;DHT22;35277;49.890;8.222;2022-11-11T00:35:09;22.10;75.90
2995;DHT22;35277;49.890;8.222;2022-11-11T00:38:13;22.10;75.90
2995;DHT22;35277;49.890;8.222;2022-11-11T00:41:22;22.10;75.90
2995;DHT22;35277;49.890;8.222;2022-11-11T00:44:09;22.10;75.90
2995;DHT22;35277;49.890;8.222;2022-11-11T00:46:55;22.10;75.90
2995;DHT22;35277;49.890;8.222;2022-11-11T00:50:01;22.10;75.90
2995;DHT22;35277;49.890;8.222;2022-11-11T00:53:09;22.10;75.90
2995;DHT22;35277;49.890;8.222;2022-11-11T00:55:56;22.10;75.90
2995;DHT22;35277;49.890;8.222;2022-11-11T00:58:43;22.10;76.00
2995;DHT22;35277;49.890;8.222;2022-11-11T01:01:29;22.10;75.90
2995;DHT22;35277;49.890;8.222;2022-11-11T01:04:16;22.10;75.90
2995;DHT22;35277;49.890;8.222;2022-11-11T01:07:04;22.10;75.90
2995;DHT22;35277;49.890;8.222;2022-11-11T01:09:50;22.10;75.90
2995;DHT22;35277;49.890;8.222;2022-11-11T01:12:37;22.10;76.00
2995;DHT22;35277;49.890;8.222;2022-11-11T01:15:24;22.10;76.00
2995;DHT22;35277;49.890;8.222;2022-11-11T01:18:11;22.10;76.00
2995;DHT22;35277;49.890;8.222;2022-11-11T01:20:59;22.10;76.00
2995;DHT22;35277;49.890;8.222;2022-11-11T01:23:48;22.10;76.00
2995;DHT22;35277;49.890;8.222;2022-11-11T01:26:35;22.10;76.00
2995;DHT22;35277;49.890;8.222;2022-11-11T01:29:21;22.10;76.00
2995;DHT22;35277;49.890;8.222;2022-11-11T01:32:07;22.10;76.00
2995;DHT22;35277;49.890;8.222;2022-11-11T01:34:54;22.10;76.00
2995;DHT22;35277;49.890;8.222;2022-11-11T01:37:40;22.10;76.00
2995;DHT22;35277;49.890;8.222;2022-11-11T01:40:28;22.10;76.00
2995;DHT22;35277;49.890;8.222;2022-11-11T01:43:18;22.10;76.00
2995;DHT22;35277;49.890;8.222;2022-11-11T01:46:26;22.10;76.00
2995;DHT22;35277;49.890;8.222;2022-11-11T01:49:20;22.10;76.00
2995;DHT22;35277;49.890;8.222;2022-11-11T01:52:10;22.10;76.00
2995;DHT22;35277;49.890;8.222;2022-11-11T01:55:01;22.10;76.00
2995;DHT22;35277;49.890;8.222;2022-11-11T01:57:52;22.10;76.00
2995;DHT22;35277;49.890;8.222;2022-11-11T02:00:40;22.10;76.00
2995;DHT22;35277;49.890;8.222;2022-11-11T02:03:29;22.10;76.00
2995;DHT22;35277;49.890;8.222;2022-11-11T02:06:17;22.10;76.10
2995;DHT22;35277;49.890;8.222;2022-11-11T02:09:03;22.10;76.10
2995;DHT22;35277;49.890;8.222;2022-11-11T02:11:52;22.10;76.10
2995;DHT22;35277;49.890;8.222;2022-11-11T02:14:59;22.10;76.10
2995;DHT22;35277;49.890;8.222;2022-11-11T02:17:47;22.10;76.10
2995;DHT22;35277;49.890;8.222;2022-11-11T02:20:36;22.10;76.10
2995;DHT22;35277;49.890;8.222;2022-11-11T02:23:27;22.10;76.10
2995;DHT22;35277;49.890;8.222;2022-11-11T02:26:17;22.10;76.10
2995;DHT22;35277;49.890;8.222;2022-11-11T02:29:08;22.10;76.20
2995;DHT22;35277;49.890;8.222;2022-11-11T02:31:56;22.10;76.20
2995;DHT22;35277;49.890;8.222;2022-11-11T02:34:42;22.10;76.20
2995;DHT22;35277;49.890;8.222;2022-11-11T02:37:28;22.10;76.20
2995;DHT22;35277;49.890;8.222;2022-11-11T02:40:17;22.10;76.20
2995;DHT22;35277;49.890;8.222;2022-11-11T02:43:05;22.10;76.20
2995;DHT22;35277;49.890;8.222;2022-11-11T02:45:52;22.10;76.20
2995;DHT22;35277;49.890;8.222;2022-11-11T02:48:39;22.10;76.20
2995;DHT22;35277;49.890;8.222;2022-11-11T02:51:25;22.10;76.20
2995;DHT22;35277;49.890;8.222;2022-11-11T02:54:12;22.10;76.20
2995;DHT22;35277;49.890;8.222;2022-11-11T02:56:58;22.10;76.20
2995;DHT22;35277;49.890;8.222;2022-11-11T02:59:57;22.10;76.20
2995;DHT22;35277;49.890;8.222;2022-11-11T03:02:44;22.10;76.20
2995;DHT22;35277;49.890;8.222;2022-11-11T03:05:30;22.10;76.20
2995;DHT22;35277;49.890;8.222;2022-11-11T03:08:17;22.10;76.20
2995;DHT22;35277;49.890;8.222;2022-11-11T03:11:04;22.10;76.20
2995;DHT22;35277;49.890;8.222;2022-11-11T03:13:50;22.10;76.20
2995;DHT22;35277;49.890;8.222;2022-11-11T03:16:38;22.10;76.20
2995;DHT22;35277;49.890;8.222;2022-11-11T03:19:42;22.10;76.20
2995;DHT22;35277;49.890;8.222;2022-11-11T03:22:28;22.10;76.20
2995;DHT22;35277;49.890;8.222;2022-11-11T03:25:38;22.10;76.20
2995;DHT22;35277;49.890;8.222;2022-11-11T03:28:24;22.10;76.20
2995;DHT22;35277;49.890;8.222;2022-11-11T03:31:11;22.10;76.20
2995;DHT22;35277;49.890;8.222;2022-11-11T03:33:58;22.10;76.20
2995;DHT22;35277;49.890;8.222;2022-11-11T03:37:03;22.10;76.20
2995;DHT22;35277;49.890;8.222;2022-11-11T03:40:08;22.10;76.20
2995;DHT22;35277;49.890;8.222;2022-11-11T03:42:54;22.10;76.20
2995;DHT22;35277;49.890;8.222;2022-11-11T03:45:49;22.10;76.20
2995;DHT22;35277;49.890;8.222;2022-11-11T03:48:36;22.10;76.20
2995;DHT22;35277;49.890;8.222;2022-11-11T03:51:23;22.10;76.20
2995;DHT22;35277;49.890;8.222;2022-11-11T03:54:10;22.10;76.20
2995;DHT22;35277;49.890;8.222;2022-11-11T03:56:57;22.10;76.20
2995;DHT22;35277;49.890;8.222;2022-11-11T03:59:58;22.10;76.20
2995;DHT22;35277;49.890;8.222;2022-11-11T04:02:44;22.10;76.20
2995;DHT22;35277;49.890;8.222;2022-11-11T04:05:49;22.10;76.20
2995;DHT22;35277;49.890;8.222;2022-11-11T04:08:54;22.10;76.20
2995;DHT22;35277;49.890;8.222;2022-11-11T04:11:58;22.10;76.20
2995;DHT22;35277;49.890;8.222;2022-11-11T04:14:44;22.10;76.20
2995;DHT22;35277;49.890;8.222;2022-11-11T04:17:48;22.10;76.20
2995;DHT22;35277;49.890;8.222;2022-11-11T04:20:35;22.10;76.20
2995;DHT22;35277;49.890;8.222;2022-11-11T04:23:47;22.10;76.20
2995;DHT22;35277;49.890;8.222;2022-11-11T04:26:34;22.10;76.20
2995;DHT22;35277;49.890;8.222;2022-11-11T04:29:20;22.10;76.20
2995;DHT22;35277;49.890;8.222;2022-11-11T04:32:17;22.10;76.20
2995;DHT22;35277;49.890;8.222;2022-11-11T04:35:24;22.10;76.30
2995;DHT22;35277;49.890;8.222;2022-11-11T04:38:10;22.00;76.20
2995;DHT22;35277;49.890;8.222;2022-11-11T04:41:16;22.10;76.30
2995;DHT22;35277;49.890;8.222;2022-11-11T04:44:04;22.10;76.30
2995;DHT22;35277;49.890;8.222;2022-11-11T04:47:09;22.10;76.30
2995;DHT22;35277;49.890;8.222;2022-11-11T04:49:55;22.10;76.30
2995;DHT22;35277;49.890;8.222;2022-11-11T04:52:47;22.10;76.30
2995;DHT22;35277;49.890;8.222;2022-11-11T04:55:33;22.00;76.20
2995;DHT22;35277;49.890;8.222;2022-11-11T04:58:37;22.10;76.30
2995;DHT22;35277;49.890;8.222;2022-11-11T05:01:25;22.10;76.30
2995;DHT22;35277;49.890;8.222;2022-11-11T05:04:29;22.10;76.40
2995;DHT22;35277;49.890;8.222;2022-11-11T05:07:16;22.10;76.40
2995;DHT22;35277;49.890;8.222;2022-11-11T05:10:20;22.00;76.20
2995;DHT22;35277;49.890;8.222;2022-11-11T05:13:06;22.00;76.20
2995;DHT22;35277;49.890;8.222;2022-11-11T05:16:14;22.10;76.30
2995;DHT22;35277;49.890;8.222;2022-11-11T05:19:20;22.00;76.20
2995;DHT22;35277;49.890;8.222;2022-11-11T05:22:27;22.00;76.10
2995;DHT22;35277;49.890;8.222;2022-11-11T05:25:13;22.00;76.10
2995;DHT22;35277;49.890;8.222;2022-11-11T05:28:10;22.00;76.10
2995;DHT22;35277;49.890;8.222;2022-11-11T05:30:57;22.00;76.00
2995;DHT22;35277;49.890;8.222;2022-11-11T05:33:43;22.00;76.00
2995;DHT22;35277;49.890;8.222;2022-11-11T05:36:31;22.00;76.00
2995;DHT22;35277;49.890;8.222;2022-11-11T05:39:18;22.00;76.00
2995;DHT22;35277;49.890;8.222;2022-11-11T05:42:05;22.00;75.90
2995;DHT22;35277;49.890;8.222;2022-11-11T05:44:51;22.00;75.90
2995;DHT22;35277;49.890;8.222;2022-11-11T05:47:38;22.00;75.90
2995;DHT22;35277;49.890;8.222;2022-11-11T05:50:24;22.00;75.80
2995;DHT22;35277;49.890;8.222;2022-11-11T05:53:12;22.00;75.80
2995;DHT22;35277;49.890;8.222;2022-11-11T05:55:58;22.00;75.80
2995;DHT22;35277;49.890;8.222;2022-11-11T05:58:45;22.00;75.70
2995;DHT22;35277;49.890;8.222;2022-11-11T06:01:35;22.00;75.60
2995;DHT22;35277;49.890;8.222;2022-11-11T06:04:21;22.00;75.60
2995;DHT22;35277;49.890;8.222;2022-11-11T06:07:08;22.00;75.60
2995;DHT22;35277;49.890;8.222;2022-11-11T06:09:56;22.00;75.50
2995;DHT22;35277;49.890;8.222;2022-11-11T06:13:02;22.00;75.50
2995;DHT22;35277;49.890;8.222;2022-11-11T06:15:51;22.00;75.50
2995;DHT22;35277;49.890;8.222;2022-11-11T06:18:38;22.00;75.50
2995;DHT22;35277;49.890;8.222;2022-11-11T06:21:25;22.00;75.40
2995;DHT22;35277;49.890;8.222;2022-11-11T06:24:11;22.00;75.70
2995;DHT22;35277;49.890;8.222;2022-11-11T06:27:00;22.00;76.20
2995;DHT22;35277;49.890;8.222;2022-11-11T06:29:47;22.00;76.30
2995;DHT22;35277;49.890;8.222;2022-11-11T06:32:33;22.00;76.20
2995;DHT22;35277;49.890;8.222;2022-11-11T06:35:19;22.10;76.40
2995;DHT22;35277;49.890;8.222;2022-11-11T06:38:06;22.10;76.30
2995;DHT22;35277;49.890;8.222;2022-11-11T06:40:52;22.10;76.30
2995;DHT22;35277;49.890;8.222;2022-11-11T06:43:40;22.10;76.20
2995;DHT22;35277;49.890;8.222;2022-11-11T06:46:27;22.10;76.20
2995;DHT22;35277;49.890;8.222;2022-11-11T06:49:14;22.10;76.20
2995;DHT22;35277;49.890;8.222;2022-11-11T06:52:00;22.10;76.40
2995;DHT22;35277;49.890;8.222;2022-11-11T06:54:47;22.10;76.20
2995;DHT22;35277;49.890;8.222;2022-11-11T06:57:33;22.10;76.20
2995;DHT22;35277;49.890;8.222;2022-11-11T07:00:21;22.10;76.20
2995;DHT22;35277;49.890;8.222;2022-11-11T07:03:10;22.10;76.20
2995;DHT22;35277;49.890;8.222;2022-11-11T07:05:59;22.10;76.20
2995;DHT22;35277;49.890;8.222;2022-11-11T07:08:46;22.10;76.20
2995;DHT22;35277;49.890;8.222;2022-11-11T07:11:32;22.10;76.20
2995;DHT22;35277;49.890;8.222;2022-11-11T07:14:19;22.10;76.10
2995;DHT22;35277;49.890;8.222;2022-11-11T07:17:06;22.10;76.10
2995;DHT22;35277;49.890;8.222;2022-11-11T07:19:53;22.10;76.10
2995;DHT22;35277;49.890;8.222;2022-11-11T07:22:39;22.10;76.10
2995;DHT22;35277;49.890;8.222;2022-11-11T07:25:26;22.10;76.00
2995;DHT22;35277;49.890;8.222;2022-11-11T07:28:13;22.10;76.00
2995;DHT22;35277;49.890;8.222;2022-11-11T07:30:59;22.10;75.90
2995;DHT22;35277;49.890;8.222;2022-11-11T07:33:47;22.10;75.90
2995;DHT22;35277;49.890;8.222;2022-11-11T07:36:34;22.10;75.90
2995;DHT22;35277;49.890;8.222;2022-11-11T07:39:20;22.10;75.80
2995;DHT22;35277;49.890;8.222;2022-11-11T07:42:07;22.10;75.70
2995;DHT22;35277;49.890;8.222;2022-11-11T07:45:13;22.10;75.70
2995;DHT22;35277;49.890;8.222;2022-11-11T07:48:00;22.10;75.70
2995;DHT22;35277;49.890;8.222;2022-11-11T07:50:50;22.10;75.60
2995;DHT22;35277;49.890;8.222;2022-11-11T07:53:36;22.10;75.60
2995;DHT22;35277;49.890;8.222;2022-11-11T07:56:23;22.10;75.60
2995;DHT22;35277;49.890;8.222;2022-11-11T07:59:09;22.10;75.60
2995;DHT22;35277;49.890;8.222;2022-11-11T08:01:56;22.10;75.60
2995;DHT22;35277;49.890;8.222;2022-11-11T08:04:42;22.10;75.60
2995;DHT22;35277;49.890;8.222;2022-11-11T08:07:29;22.10;75.50
2995;DHT22;35277;49.890;8.222;2022-11-11T08:10:16;22.10;75.50
2995;DHT22;35277;49.890;8.222;2022-11-11T08:13:03;22.10;75.50
2995;DHT22;35277;49.890;8.222;2022-11-11T08:16:08;22.10;75.50
2995;DHT22;35277;49.890;8.222;2022-11-11T08:18:54;22.10;75.50
2995;DHT22;35277;49.890;8.222;2022-11-11T08:21:42;22.10;75.50
2995;DHT22;35277;49.890;8.222;2022-11-11T08:24:30;22.10;75.50
2995;DHT22;35277;49.890;8.222;2022-11-11T08:27:36;22.10;75.50
2995;DHT22;35277;49.890;8.222;2022-11-11T08:30:22;22.10;76.20
2995;DHT22;35277;49.890;8.222;2022-11-11T08:33:09;22.10;75.50
2995;DHT22;35277;49.890;8.222;2022-11-11T08:36:17;22.10;75.50
2995;DHT22;35277;49.890;8.222;2022-11-11T08:39:06;22.10;75.50
2995;DHT22;35277;49.890;8.222;2022-11-11T08:41:54;22.10;75.40
2995;DHT22;35277;49.890;8.222;2022-11-11T08:44:40;22.10;75.40
2995;DHT22;35277;49.890;8.222;2022-11-11T08:47:26;22.10;75.50
2995;DHT22;35277;49.890;8.222;2022-11-11T08:50:13;22.10;75.40
2995;DHT22;35277;49.890;8.222;2022-11-11T08:52:59;22.10;75.40
2995;DHT22;35277;49.890;8.222;2022-11-11T08:55:46;22.10;75.40
2995;DHT22;35277;49.890;8.222;2022-11-11T08:58:34;22.10;75.40
2995;DHT22;35277;49.890;8.222;2022-11-11T09:01:20;22.10;75.40
2995;DHT22;35277;49.890;8.222;2022-11-11T09:04:07;22.10;75.40
2995;DHT22;35277;49.890;8.222;2022-11-11T09:07:13;22.10;75.40
2995;DHT22;35277;49.890;8.222;2022-11-11T09:10:00;22.10;75.40
2995;DHT22;35277;49.890;8.222;2022-11-11T09:12:47;22.10;75.40
2995;DHT22;35277;49.890;8.222;2022-11-11T09:15:34;22.10;75.40
2995;DHT22;35277;49.890;8.222;2022-11-11T09:18:21;22.10;75.40
2995;DHT22;35277;49.890;8.222;2022-11-11T09:21:07;22.10;75.40
2995;DHT22;35277;49.890;8.222;2022-11-11T09:23:54;22.10;75.40
2995;DHT22;35277;49.890;8.222;2022-11-11T09:26:40;22.10;75.50
2995;DHT22;35277;49.890;8.222;2022-11-11T09:29:27;22.10;75.60
2995;DHT22;35277;49.890;8.222;2022-11-11T09:32:15;22.10;75.60
2995;DHT22;35277;49.890;8.222;2022-11-11T09:35:01;22.10;75.60
2995;DHT22;35277;49.890;8.222;2022-11-11T09:37:54;22.10;75.60
2995;DHT22;35277;49.890;8.222;2022-11-11T09:40:50;22.10;75.60
2995;DHT22;35277;49.890;8.222;2022-11-11T09:43:44;22.10;75.60
2995;DHT22;35277;49.890;8.222;2022-11-11T09:46:35;22.10;76.20
2995;DHT22;35277;49.890;8.222;2022-11-11T09:49:45;22.10;75.70
2995;DHT22;35277;49.890;8.222;2022-11-11T09:52:38;22.10;75.80
2995;DHT22;35277;49.890;8.222;2022-11-11T09:55:31;22.10;75.80
2995;DHT22;35277;49.890;8.222;2022-11-11T09:58:22;22.10;76.00
2995;DHT22;35277;49.890;8.222;2022-11-11T10:01:13;22.10;76.10
2995;DHT22;35277;49.890;8.222;2022-11-11T10:04:07;22.10;76.20
2995;DHT22;35277;49.890;8.222;2022-11-11T10:07:05;22.10;76.30
2995;DHT22;35277;49.890;8.222;2022-11-11T10:09:59;22.10;76.40
2995;DHT22;35277;49.890;8.222;2022-11-11T10:12:53;22.10;76.50
2995;DHT22;35277;49.890;8.222;2022-11-11T10:15:47;22.10;76.60
2995;DHT22;35277;49.890;8.222;2022-11-11T10:18:51;22.10;76.70
2995;DHT22;35277;49.890;8.222;2022-11-11T10:21:45;22.10;76.70
2995;DHT22;35277;49.890;8.222;2022-11-11T10:25:05;22.10;76.70
2995;DHT22;35277;49.890;8.222;2022-11-11T10:27:55;22.10;76.90
2995;DHT22;35277;49.890;8.222;2022-11-11T10:30:42;22.10;76.90
2995;DHT22;35277;49.890;8.222;2022-11-11T10:33:34;22.10;77.20
2995;DHT22;35277;49.890;8.222;2022-11-11T10:36:25;22.20;77.30
2995;DHT22;35277;49.890;8.222;2022-11-11T10:39:26;22.10;77.40
2995;DHT22;35277;49.890;8.222;2022-11-11T10:42:17;22.20;77.50
2995;DHT22;35277;49.890;8.222;2022-11-11T10:45:12;22.20;77.70
2995;DHT22;35277;49.890;8.222;2022-11-11T10:48:03;22.10;77.70
2995;DHT22;35277;49.890;8.222;2022-11-11T10:50:52;22.10;77.80
2995;DHT22;35277;49.890;8.222;2022-11-11T10:53:45;22.20;78.10
2995;DHT22;35277;49.890;8.222;2022-11-11T10:56:36;22.10;78.20
2995;DHT22;35277;49.890;8.222;2022-11-11T10:59:30;22.20;78.50
2995;DHT22;35277;49.890;8.222;2022-11-11T11:02:22;22.10;78.30
2995;DHT22;35277;49.890;8.222;2022-11-11T11:05:13;22.10;78.40
2995;DHT22;35277;49.890;8.222;2022-11-11T11:08:05;22.10;78.80
2995;DHT22;35277;49.890;8.222;2022-11-11T11:10:56;22.10;79.00
2995;DHT22;35277;49.890;8.222;2022-11-11T11:13:47;22.10;79.00
2995;DHT22;35277;49.890;8.222;2022-11-11T11:16:38;22.10;78.90
2995;DHT22;35277;49.890;8.222;2022-11-11T11:19:29;22.10;78.90
2995;DHT22;35277;49.890;8.222;2022-11-11T11:22:15;22.20;78.90
2995;DHT22;35277;49.890;8.222;2022-11-11T11:25:08;22.10;76.50
2995;DHT22;35277;49.890;8.222;2022-11-11T11:28:06;22.00;75.00
2995;DHT22;35277;49.890;8.222;2022-11-11T11:30:58;21.90;73.70
2995;DHT22;35277;49.890;8.222;2022-11-11T11:33:52;21.80;73.40
2995;DHT22;35277;49.890;8.222;2022-11-11T11:36:38;21.70;72.60
2995;DHT22;35277;49.890;8.222;2022-11-11T11:39:33;21.60;72.90
2995;DHT22;35277;49.890;8.222;2022-11-11T11:42:27;21.60;72.90
2995;DHT22;35277;49.890;8.222;2022-11-11T11:45:19;21.60;72.80
2995;DHT22;35277;49.890;8.222;2022-11-11T11:48:19;21.60;72.90
2995;DHT22;35277;49.890;8.222;2022-11-11T11:51:34;21.60;72.90
2995;DHT22;35277;49.890;8.222;2022-11-11T11:54:35;21.70;73.10
2995;DHT22;35277;49.890;8.222;2022-11-11T11:57:35;21.70;73.20
2995;DHT22;35277;49.890;8.222;2022-11-11T12:00:28;21.70;73.20
2995;DHT22;35277;49.890;8.222;2022-11-11T12:03:32;21.70;73.20
2995;DHT22;35277;49.890;8.222;2022-11-11T12:06:32;21.70;73.30
2995;DHT22;35277;49.890;8.222;2022-11-11T12:09:29;21.80;73.50
2995;DHT22;35277;49.890;8.222;2022-11-11T12:12:28;21.80;73.60
2995;DHT22;35277;49.890;8.222;2022-11-11T12:15:27;21.80;73.70
2995;DHT22;35277;49.890;8.222;2022-11-11T12:18:27;21.80;73.80
2995;DHT22;35277;49.890;8.222;2022-11-11T12:21:16;21.80;73.80
2995;DHT22;35277;49.890;8.222;2022-11-11T12:24:10;21.80;73.80
2995;DHT22;35277;49.890;8.222;2022-11-11T12:27:04;21.90;74.00
2995;DHT22;35277;49.890;8.222;2022-11-11T12:30:02;21.90;74.10
2995;DHT22;35277;49.890;8.222;2022-11-11T12:33:29;21.90;74.10
2995;DHT22;35277;49.890;8.222;2022-11-11T12:36:23;21.90;74.30
2995;DHT22;35277;49.890;8.222;2022-11-11T12:39:28;21.90;74.40
2995;DHT22;35277;49.890;8.222;2022-11-11T12:42:25;21.90;74.50
2995;DHT22;35277;49.890;8.222;2022-11-11T12:45:17;21.90;75.40
2995;DHT22;35277;49.890;8.222;2022-11-11T12:48:09;21.90;74.70
2995;DHT22;35277;49.890;8.222;2022-11-11T12:51:07;21.90;74.80
2995;DHT22;35277;49.890;8.222;2022-11-11T12:54:04;22.00;75.00
2995;DHT22;35277;49.890;8.222;2022-11-11T12:57:00;22.00;75.90
2995;DHT22;35277;49.890;8.222;2022-11-11T13:00:01;22.00;75.10
2995;DHT22;35277;49.890;8.222;2022-11-11T13:03:13;22.00;75.20
2995;DHT22;35277;49.890;8.222;2022-11-11T13:06:12;22.00;75.30
2995;DHT22;35277;49.890;8.222;2022-11-11T13:09:13;22.00;75.30
2995;DHT22;35277;49.890;8.222;2022-11-11T13:12:09;22.00;75.40
2995;DHT22;35277;49.890;8.222;2022-11-11T13:15:03;22.00;76.30
2995;DHT22;35277;49.890;8.222;2022-11-11T13:17:58;22.00;75.40
2995;DHT22;35277;49.890;8.222;2022-11-11T13:20:51;22.00;75.50
2995;DHT22;35277;49.890;8.222;2022-11-11T13:23:40;22.00;75.50
2995;DHT22;35277;49.890;8.222;2022-11-11T13:26:29;22.00;75.50
2995;DHT22;35277;49.890;8.222;2022-11-11T13:29:36;22.10;75.70
2995;DHT22;35277;49.890;8.222;2022-11-11T13:32:28;22.10;75.80
2995;DHT22;35277;49.890;8.222;2022-11-11T13:35:21;22.10;75.80
2995;DHT22;35277;49.890;8.222;2022-11-11T13:38:21;22.10;75.80
2995;DHT22;35277;49.890;8.222;2022-11-11T13:41:09;22.10;75.90
2995;DHT22;35277;49.890;8.222;2022-11-11T13:43:56;22.10;75.90
2995;DHT22;35277;49.890;8.222;2022-11-11T13:46:46;22.10;76.00
2995;DHT22;35277;49.890;8.222;2022-11-11T13:49:37;22.10;76.00
2995;DHT22;35277;49.890;8.222;2022-11-11T13:52:28;22.10;76.00
2995;DHT22;35277;49.890;8.222;2022-11-11T13:55:25;22.10;76.10
2995;DHT22;35277;49.890;8.222;2022-11-11T13:58:21;22.10;76.10
2995;DHT22;35277;49.890;8.222;2022-11-11T14:01:10;22.10;76.20
2995;DHT22;35277;49.890;8.222;2022-11-11T14:04:00;22.10;76.20
2995;DHT22;35277;49.890;8.222;2022-11-11T14:06:54;22.10;76.20
2995;DHT22;35277;49.890;8.222;2022-11-11T14:09:59;22.10;76.30
2995;DHT22;35277;49.890;8.222;2022-11-11T14:12:48;22.10;76.40
2995;DHT22;35277;49.890;8.222;2022-11-11T14:15:40;22.10;76.40
2995;DHT22;35277;49.890;8.222;2022-11-11T14:18:42;22.10;76.40
2995;DHT22;35277;49.890;8.222;2022-11-11T14:21:48;22.10;77.30
2995;DHT22;35277;49.890;8.222;2022-11-11T14:24:43;22.10;76.50
2995;DHT22;35277;49.890;8.222;2022-11-11T14:27:30;22.10;76.50
2995;DHT22;35277;49.890;8.222;2022-11-11T14:30:31;22.10;76.50
2995;DHT22;35277;49.890;8.222;2022-11-11T14:33:37;22.10;76.60
2995;DHT22;35277;49.890;8.222;2022-11-11T14:36:31;22.10;76.60
2995;DHT22;35277;49.890;8.222;2022-11-11T14:39:37;22.10;76.60
2995;DHT22;35277;49.890;8.222;2022-11-11T14:42:44;22.10;77.50
2995;DHT22;35277;49.890;8.222;2022-11-11T14:46:02;22.10;76.80
2995;DHT22;35277;49.890;8.222;2022-11-11T14:49:00;22.10;76.90
2995;DHT22;35277;49.890;8.222;2022-11-11T14:51:53;22.10;76.90
2995;DHT22;35277;49.890;8.222;2022-11-11T14:55:09;22.10;77.00
2995;DHT22;35277;49.890;8.222;2022-11-11T14:58:00;22.10;77.10
2995;DHT22;35277;49.890;8.222;2022-11-11T15:00:55;22.10;77.20
2995;DHT22;35277;49.890;8.222;2022-11-11T15:03:44;22.10;77.20
2995;DHT22;35277;49.890;8.222;2022-11-11T15:06:37;22.10;77.30
2995;DHT22;35277;49.890;8.222;2022-11-11T15:09:40;22.10;77.40
2995;DHT22;35277;49.890;8.222;2022-11-11T15:12:37;22.10;77.50
2995;DHT22;35277;49.890;8.222;2022-11-11T15:15:31;22.10;77.50
2995;DHT22;35277;49.890;8.222;2022-11-11T15:18:43;22.10;77.60
2995;DHT22;35277;49.890;8.222;2022-11-11T15:21:33;22.10;77.70
2995;DHT22;35277;49.890;8.222;2022-11-11T15:24:31;22.10;77.70
2995;DHT22;35277;49.890;8.222;2022-11-11T15:27:26;22.10;77.80
2995;DHT22;35277;49.890;8.222;2022-11-11T15:30:17;22.10;77.80
2995;DHT22;35277;49.890;8.222;2022-11-11T15:33:10;22.10;77.90
2995;DHT22;35277;49.890;8.222;2022-11-11T15:36:04;22.10;77.90
2995;DHT22;35277;49.890;8.222;2022-11-11T15:38:56;22.10;77.90
2995;DHT22;35277;49.890;8.222;2022-11-11T15:41:47;22.10;78.00
2995;DHT22;35277;49.890;8.222;2022-11-11T15:44:36;22.10;78.00
2995;DHT22;35277;49.890;8.222;2022-11-11T15:47:24;22.10;78.00
2995;DHT22;35277;49.890;8.222;2022-11-11T15:50:29;22.10;78.00
2995;DHT22;35277;49.890;8.222;2022-11-11T15:53:22;22.10;78.00
2995;DHT22;35277;49.890;8.222;2022-11-11T15:56:09;22.10;77.90
2995;DHT22;35277;49.890;8.222;2022-11-11T15:58:55;22.10;77.90
2995;DHT22;35277;49.890;8.222;2022-11-11T16:01:43;22.10;77.90
2995;DHT22;35277;49.890;8.222;2022-11-11T16:04:31;22.10;77.90
2995;DHT22;35277;49.890;8.222;2022-11-11T16:07:41;22.10;77.90
2995;DHT22;35277;49.890;8.222;2022-11-11T16:10:31;22.10;77.90
2995;DHT22;35277;49.890;8.222;2022-11-11T16:13:20;22.10;77.90
2995;DHT22;35277;49.890;8.222;2022-11-11T16:16:09;22.10;77.90
2995;DHT22;35277;49.890;8.222;2022-11-11T16:19:00;22.10;77.90
2995;DHT22;35277;49.890;8.222;2022-11-11T16:21:52;22.10;77.90
2995;DHT22;35277;49.890;8.222;2022-11-11T16:24:41;22.10;77.90
2995;DHT22;35277;49.890;8.222;2022-11-11T16:27:31;22.10;78.00
2995;DHT22;35277;49.890;8.222;2022-11-11T16:30:29;22.10;77.90
2995;DHT22;35277;49.890;8.222;2022-11-11T16:33:19;22.10;78.00
2995;DHT22;35277;49.890;8.222;2022-11-11T16:36:17;22.10;77.90
2995;DHT22;35277;49.890;8.222;2022-11-11T16:39:17;22.20;78.10
2995;DHT22;35277;49.890;8.222;2022-11-11T16:42:05;22.10;78.00
2995;DHT22;35277;49.890;8.222;2022-11-11T16:44:55;22.10;77.90
2995;DHT22;35277;49.890;8.222;2022-11-11T16:47:47;22.10;77.90
2995;DHT22;35277;49.890;8.222;2022-11-11T16:50:53;22.20;77.90
2995;DHT22;35277;49.890;8.222;2022-11-11T16:53:43;22.10;77.80
2995;DHT22;35277;49.890;8.222;2022-11-11T16:56:33;22.10;77.80
2995;DHT22;35277;49.890;8.222;2022-11-11T16:59:24;22.10;77.90
2995;DHT22;35277;49.890;8.222;2022-11-11T17:02:18;22.10;77.90
2995;DHT22;35277;49.890;8.222;2022-11-11T17:05:06;22.10;77.90
2995;DHT22;35277;49.890;8.222;2022-11-11T17:07:53;22.10;78.00
2995;DHT22;35277;49.890;8.222;2022-11-11T17:10:39;22.10;78.00
2995;DHT22;35277;49.890;8.222;2022-11-11T17:13:27;22.10;78.00
2995;DHT22;35277;49.890;8.222;2022-11-11T17:16:14;22.10;78.00
2995;DHT22;35277;49.890;8.222;2022-11-11T17:19:01;22.20;78.20
2995;DHT22;35277;49.890;8.222;2022-11-11T17:21:47;22.10;78.10
2995;DHT22;35277;49.890;8.222;2022-11-11T17:24:34;22.10;78.20
2995;DHT22;35277;49.890;8.222;2022-11-11T17:27:20;22.10;78.20
2995;DHT22;35277;49.890;8.222;2022-11-11T17:30:10;22.10;78.20
2995;DHT22;35277;49.890;8.222;2022-11-11T17:32:56;22.10;78.30
2995;DHT22;35277;49.890;8.222;2022-11-11T17:35:49;22.10;78.30
2995;DHT22;35277;49.890;8.222;2022-11-11T17:38:36;22.10;78.30
2995;DHT22;35277;49.890;8.222;2022-11-11T17:41:23;22.10;78.30
2995;DHT22;35277;49.890;8.222;2022-11-11T17:44:09;22.10;78.20
2995;DHT22;35277;49.890;8.222;2022-11-11T17:46:57;22.10;78.20
2995;DHT22;35277;49.890;8.222;2022-11-11T17:49:44;22.10;78.20
2995;DHT22;35277;49.890;8.222;2022-11-11T17:52:46;22.10;78.30
2995;DHT22;35277;49.890;8.222;2022-11-11T17:55:33;22.10;78.30
2995;DHT22;35277;49.890;8.222;2022-11-11T17:58:19;22.10;78.30
2995;DHT22;35277;49.890;8.222;2022-11-11T18:01:06;22.10;78.30
2995;DHT22;35277;49.890;8.222;2022-11-11T18:03:55;22.10;78.30
2995;DHT22;35277;49.890;8.222;2022-11-11T18:06:42;22.10;78.30
2995;DHT22;35277;49.890;8.222;2022-11-11T18:09:28;22.10;78.30
2995;DHT22;35277;49.890;8.222;2022-11-11T18:12:15;22.10;78.30
2995;DHT22;35277;49.890;8.222;2022-11-11T18:15:01;22.10;78.30
2995;DHT22;35277;49.890;8.222;2022-11-11T18:17:48;22.10;78.30
2995;DHT22;35277;49.890;8.222;2022-11-11T18:20:36;22.10;78.30
2995;DHT22;35277;49.890;8.222;2022-11-11T18:23:22;22.10;78.20